sensor_id;sensor_type;location;lat;lon;timestamp;P1;durP1;ratioP1;P2;durP2;ratioP2
1382;SDS011;685;47.196;11.880;2023-07-31T00:00:18;3.80;;;1.90;;
1382;SDS011;685;47.196;11.880;2023-07-31T00:02:45;3.23;;;1.63;;
1382;SDS011;685;47.196;11.880;2023-07-31T00:05:13;3.23;;;1.73;;
1382;SDS011;685;47.196;11.880;2023-07-31T00:07:40;3.00;;;1.80;;
1382;SDS011;685;47.196;11.880;2023-07-31T00:10:07;2.50;;;1.50;;
1382;SDS011;685;47.196;11.880;2023-07-31T00:12:35;4.17;;;1.57;;
1382;SDS011;685;47.196;11.880;2023-07-31T00:15:02;2.77;;;1.63;;
1382;SDS011;685;47.196;11.880;2023-07-31T00:17:31;4.57;;;1.30;;
1382;SDS011;685;47.196;11.880;2023-07-31T00:19:58;2.97;;;1.90;;
1382;SDS011;685;47.196;11.880;2023-07-31T00:22:25;4.23;;;2.20;;
1382;SDS011;685;47.196;11.880;2023-07-31T00:24:53;2.97;;;1.60;;
1382;SDS011;685;47.196;11.880;2023-07-31T00:27:20;3.10;;;1.93;;
1382;SDS011;685;47.196;11.880;2023-07-31T00:29:47;2.87;;;1.50;;
1382;SDS011;685;47.196;11.880;2023-07-31T00:32:14;9.83;;;1.60;;
1382;SDS011;685;47.196;11.880;2023-07-31T00:34:43;2.50;;;1.47;;
1382;SDS011;685;47.196;11.880;2023-07-31T00:37:10;3.40;;;1.90;;
1382;SDS011;685;47.196;11.880;2023-07-31T00:39:37;3.57;;;1.90;;
1382;SDS011;685;47.196;11.880;2023-07-31T00:42:05;2.17;;;1.47;;
1382;SDS011;685;47.196;11.880;2023-07-31T00:44:32;5.77;;;1.67;;
1382;SDS011;685;47.196;11.880;2023-07-31T00:47:00;4.10;;;1.83;;
1382;SDS011;685;47.196;11.880;2023-07-31T00:49:27;2.70;;;1.80;;
1382;SDS011;685;47.196;11.880;2023-07-31T00:51:56;4.00;;;1.73;;
1382;SDS011;685;47.196;11.880;2023-07-31T00:54:23;2.60;;;1.53;;
1382;SDS011;685;47.196;11.880;2023-07-31T00:56:50;2.30;;;1.57;;
1382;SDS011;685;47.196;11.880;2023-07-31T00:59:19;2.93;;;1.93;;
1382;SDS011;685;47.196;11.880;2023-07-31T01:01:47;3.90;;;1.83;;
1382;SDS011;685;47.196;11.880;2023-07-31T01:04:14;2.90;;;1.77;;
1382;SDS011;685;47.196;11.880;2023-07-31T01:06:44;4.03;;;1.63;;
1382;SDS011;685;47.196;11.880;2023-07-31T01:09:16;2.40;;;1.70;;
1382;SDS011;685;47.196;11.880;2023-07-31T01:11:48;6.00;;;1.90;;
1382;SDS011;685;47.196;11.880;2023-07-31T01:14:15;2.90;;;1.67;;
1382;SDS011;685;47.196;11.880;2023-07-31T01:16:42;2.40;;;1.63;;
1382;SDS011;685;47.196;11.880;2023-07-31T01:19:10;2.47;;;1.67;;
1382;SDS011;685;47.196;11.880;2023-07-31T01:21:47;4.37;;;1.90;;
1382;SDS011;685;47.196;11.880;2023-07-31T01:24:23;3.50;;;1.60;;
1382;SDS011;685;47.196;11.880;2023-07-31T01:26:57;4.43;;;1.63;;
1382;SDS011;685;47.196;11.880;2023-07-31T01:29:27;3.03;;;1.30;;
1382;SDS011;685;47.196;11.880;2023-07-31T01:31:56;3.40;;;1.60;;
1382;SDS011;685;47.196;11.880;2023-07-31T01:34:23;3.93;;;1.70;;
1382;SDS011;685;47.196;11.880;2023-07-31T01:36:51;2.50;;;1.70;;
1382;SDS011;685;47.196;11.880;2023-07-31T01:39:19;3.07;;;1.97;;
1382;SDS011;685;47.196;11.880;2023-07-31T01:41:47;5.07;;;1.80;;
1382;SDS011;685;47.196;11.880;2023-07-31T01:44:15;3.17;;;1.60;;
1382;SDS011;685;47.196;11.880;2023-07-31T01:46:42;3.83;;;2.00;;
1382;SDS011;685;47.196;11.880;2023-07-31T01:49:10;2.40;;;1.50;;
1382;SDS011;685;47.196;11.880;2023-07-31T01:51:37;4.03;;;1.97;;
1382;SDS011;685;47.196;11.880;2023-07-31T01:54:04;2.70;;;2.10;;
1382;SDS011;685;47.196;11.880;2023-07-31T01:56:32;3.13;;;1.93;;
1382;SDS011;685;47.196;11.880;2023-07-31T01:58:59;2.70;;;1.73;;
1382;SDS011;685;47.196;11.880;2023-07-31T02:01:28;2.83;;;1.80;;
1382;SDS011;685;47.196;11.880;2023-07-31T02:03:55;9.60;;;2.23;;
1382;SDS011;685;47.196;11.880;2023-07-31T02:06:22;6.73;;;3.50;;
1382;SDS011;685;47.196;11.880;2023-07-31T02:08:50;4.10;;;2.33;;
1382;SDS011;685;47.196;11.880;2023-07-31T02:11:17;4.53;;;2.40;;
1382;SDS011;685;47.196;11.880;2023-07-31T02:13:44;3.30;;;1.70;;
1382;SDS011;685;47.196;11.880;2023-07-31T02:16:11;3.00;;;2.17;;
1382;SDS011;685;47.196;11.880;2023-07-31T02:18:40;4.70;;;2.10;;
1382;SDS011;685;47.196;11.880;2023-07-31T02:21:07;2.97;;;1.70;;
1382;SDS011;685;47.196;11.880;2023-07-31T02:23:34;3.20;;;1.83;;
1382;SDS011;685;47.196;11.880;2023-07-31T02:26:02;4.33;;;2.10;;
1382;SDS011;685;47.196;11.880;2023-07-31T02:28:29;4.40;;;1.63;;
1382;SDS011;685;47.196;11.880;2023-07-31T02:30:56;2.50;;;1.53;;
1382;SDS011;685;47.196;11.880;2023-07-31T02:33:24;3.03;;;1.73;;
1382;SDS011;685;47.196;11.880;2023-07-31T02:35:52;3.73;;;1.57;;
1382;SDS011;685;47.196;11.880;2023-07-31T02:38:19;2.50;;;1.40;;
1382;SDS011;685;47.196;11.880;2023-07-31T02:40:47;2.90;;;1.53;;
1382;SDS011;685;47.196;11.880;2023-07-31T02:43:14;3.57;;;1.80;;
1382;SDS011;685;47.196;11.880;2023-07-31T02:45:41;3.40;;;1.60;;
1382;SDS011;685;47.196;11.880;2023-07-31T02:48:07;2.77;;;1.50;;
1382;SDS011;685;47.196;11.880;2023-07-31T02:50:35;4.10;;;2.03;;
1382;SDS011;685;47.196;11.880;2023-07-31T02:53:03;2.97;;;1.87;;
1382;SDS011;685;47.196;11.880;2023-07-31T02:55:30;4.90;;;1.70;;
1382;SDS011;685;47.196;11.880;2023-07-31T02:57:58;3.30;;;1.73;;
1382;SDS011;685;47.196;11.880;2023-07-31T03:00:25;2.70;;;1.50;;
1382;SDS011;685;47.196;11.880;2023-07-31T03:02:52;3.80;;;1.67;;
1382;SDS011;685;47.196;11.880;2023-07-31T03:05:19;4.50;;;2.00;;
1382;SDS011;685;47.196;11.880;2023-07-31T03:07:47;2.93;;;1.70;;
1382;SDS011;685;47.196;11.880;2023-07-31T03:10:15;2.60;;;1.80;;
1382;SDS011;685;47.196;11.880;2023-07-31T03:12:44;3.13;;;1.93;;
1382;SDS011;685;47.196;11.880;2023-07-31T03:15:13;2.97;;;1.73;;
1382;SDS011;685;47.196;11.880;2023-07-31T03:17:40;2.80;;;1.77;;
1382;SDS011;685;47.196;11.880;2023-07-31T03:20:08;5.50;;;2.07;;
1382;SDS011;685;47.196;11.880;2023-07-31T03:22:35;5.50;;;1.80;;
1382;SDS011;685;47.196;11.880;2023-07-31T03:25:03;3.67;;;1.90;;
1382;SDS011;685;47.196;11.880;2023-07-31T03:27:32;2.80;;;1.83;;
1382;SDS011;685;47.196;11.880;2023-07-31T03:29:59;2.63;;;1.90;;
1382;SDS011;685;47.196;11.880;2023-07-31T03:32:26;5.63;;;2.00;;
1382;SDS011;685;47.196;11.880;2023-07-31T03:34:54;2.70;;;2.20;;
1382;SDS011;685;47.196;11.880;2023-07-31T03:37:21;2.77;;;1.80;;
1382;SDS011;685;47.196;11.880;2023-07-31T03:39:48;2.20;;;1.47;;
1382;SDS011;685;47.196;11.880;2023-07-31T03:42:15;3.63;;;2.40;;
1382;SDS011;685;47.196;11.880;2023-07-31T03:44:44;3.47;;;2.10;;
1382;SDS011;685;47.196;11.880;2023-07-31T03:47:11;4.27;;;2.00;;
1382;SDS011;685;47.196;11.880;2023-07-31T03:49:38;2.90;;;1.63;;
1382;SDS011;685;47.196;11.880;2023-07-31T03:52:06;2.63;;;1.90;;
1382;SDS011;685;47.196;11.880;2023-07-31T03:54:33;3.63;;;1.83;;
1382;SDS011;685;47.196;11.880;2023-07-31T03:57:00;3.30;;;1.60;;
1382;SDS011;685;47.196;11.880;2023-07-31T03:59:27;4.90;;;1.90;;
1382;SDS011;685;47.196;11.880;2023-07-31T04:01:56;3.17;;;1.93;;
1382;SDS011;685;47.196;11.880;2023-07-31T04:04:23;2.50;;;1.50;;
1382;SDS011;685;47.196;11.880;2023-07-31T04:06:51;3.00;;;2.17;;
1382;SDS011;685;47.196;11.880;2023-07-31T04:09:18;3.73;;;2.00;;
1382;SDS011;685;47.196;11.880;2023-07-31T04:11:45;3.00;;;2.10;;
1382;SDS011;685;47.196;11.880;2023-07-31T04:14:12;2.93;;;1.87;;
1382;SDS011;685;47.196;11.880;2023-07-31T04:16:39;2.20;;;1.60;;
1382;SDS011;685;47.196;11.880;2023-07-31T04:19:08;8.23;;;2.20;;
1382;SDS011;685;47.196;11.880;2023-07-31T04:21:36;3.03;;;1.70;;
1382;SDS011;685;47.196;11.880;2023-07-31T04:24:03;5.67;;;2.30;;
1382;SDS011;685;47.196;11.880;2023-07-31T04:26:30;3.50;;;2.10;;
1382;SDS011;685;47.196;11.880;2023-07-31T04:28:58;2.40;;;1.50;;
1382;SDS011;685;47.196;11.880;2023-07-31T04:31:25;6.60;;;2.07;;
1382;SDS011;685;47.196;11.880;2023-07-31T04:33:52;3.40;;;2.30;;
1382;SDS011;685;47.196;11.880;2023-07-31T04:36:21;5.23;;;2.50;;
1382;SDS011;685;47.196;11.880;2023-07-31T04:38:48;2.80;;;1.97;;
1382;SDS011;685;47.196;11.880;2023-07-31T04:41:15;3.63;;;1.97;;
1382;SDS011;685;47.196;11.880;2023-07-31T04:43:42;4.80;;;2.10;;
1382;SDS011;685;47.196;11.880;2023-07-31T04:46:09;2.43;;;1.80;;
1382;SDS011;685;47.196;11.880;2023-07-31T04:48:37;3.10;;;2.00;;
1382;SDS011;685;47.196;11.880;2023-07-31T04:51:04;3.53;;;2.00;;
1382;SDS011;685;47.196;11.880;2023-07-31T04:53:33;3.93;;;2.30;;
1382;SDS011;685;47.196;11.880;2023-07-31T04:56:00;3.30;;;2.17;;
1382;SDS011;685;47.196;11.880;2023-07-31T04:58:27;2.50;;;1.90;;
1382;SDS011;685;47.196;11.880;2023-07-31T05:00:54;5.03;;;2.10;;
1382;SDS011;685;47.196;11.880;2023-07-31T05:03:21;4.63;;;2.63;;
1382;SDS011;685;47.196;11.880;2023-07-31T05:05:49;3.67;;;2.47;;
1382;SDS011;685;47.196;11.880;2023-07-31T05:08:16;4.60;;;2.63;;
1382;SDS011;685;47.196;11.880;2023-07-31T05:10:45;4.07;;;2.67;;
1382;SDS011;685;47.196;11.880;2023-07-31T05:13:12;3.17;;;1.90;;
1382;SDS011;685;47.196;11.880;2023-07-31T05:15:40;4.07;;;2.60;;
1382;SDS011;685;47.196;11.880;2023-07-31T05:18:07;3.30;;;2.00;;
1382;SDS011;685;47.196;11.880;2023-07-31T05:20:35;3.17;;;2.50;;
1382;SDS011;685;47.196;11.880;2023-07-31T05:23:02;3.50;;;2.50;;
1382;SDS011;685;47.196;11.880;2023-07-31T05:25:29;8.47;;;2.60;;
1382;SDS011;685;47.196;11.880;2023-07-31T05:27:58;3.63;;;2.50;;
1382;SDS011;685;47.196;11.880;2023-07-31T05:30:25;3.67;;;2.60;;
1382;SDS011;685;47.196;11.880;2023-07-31T05:32:52;6.40;;;2.57;;
1382;SDS011;685;47.196;11.880;2023-07-31T05:35:19;5.00;;;2.40;;
1382;SDS011;685;47.196;11.880;2023-07-31T05:37:47;3.13;;;2.47;;
1382;SDS011;685;47.196;11.880;2023-07-31T05:40:14;4.20;;;2.20;;
1382;SDS011;685;47.196;11.880;2023-07-31T05:42:41;6.40;;;2.27;;
1382;SDS011;685;47.196;11.880;2023-07-31T05:45:10;4.93;;;2.60;;
1382;SDS011;685;47.196;11.880;2023-07-31T05:47:38;7.27;;;2.87;;
1382;SDS011;685;47.196;11.880;2023-07-31T05:50:05;3.77;;;2.17;;
1382;SDS011;685;47.196;11.880;2023-07-31T05:52:33;5.20;;;2.10;;
1382;SDS011;685;47.196;11.880;2023-07-31T05:55:00;5.57;;;2.40;;
1382;SDS011;685;47.196;11.880;2023-07-31T05:57:28;3.43;;;2.57;;
1382;SDS011;685;47.196;11.880;2023-07-31T05:59:55;4.30;;;2.70;;
1382;SDS011;685;47.196;11.880;2023-07-31T06:02:23;4.77;;;3.10;;
1382;SDS011;685;47.196;11.880;2023-07-31T06:04:51;4.20;;;2.23;;
1382;SDS011;685;47.196;11.880;2023-07-31T06:07:18;3.50;;;2.27;;
1382;SDS011;685;47.196;11.880;2023-07-31T06:09:46;4.20;;;2.87;;
1382;SDS011;685;47.196;11.880;2023-07-31T06:12:14;5.13;;;2.90;;
1382;SDS011;685;47.196;11.880;2023-07-31T06:14:43;2.90;;;2.50;;
1382;SDS011;685;47.196;11.880;2023-07-31T06:17:11;5.53;;;3.00;;
1382;SDS011;685;47.196;11.880;2023-07-31T06:19:39;3.87;;;2.30;;
1382;SDS011;685;47.196;11.880;2023-07-31T06:22:06;7.93;;;2.90;;
1382;SDS011;685;47.196;11.880;2023-07-31T06:24:34;4.20;;;2.43;;
1382;SDS011;685;47.196;11.880;2023-07-31T06:27:01;4.30;;;2.83;;
1382;SDS011;685;47.196;11.880;2023-07-31T06:29:29;4.20;;;2.90;;
1382;SDS011;685;47.196;11.880;2023-07-31T06:31:56;3.80;;;2.10;;
1382;SDS011;685;47.196;11.880;2023-07-31T06:34:23;3.63;;;2.27;;
1382;SDS011;685;47.196;11.880;2023-07-31T06:36:52;6.70;;;3.10;;
1382;SDS011;685;47.196;11.880;2023-07-31T06:39:19;5.73;;;2.83;;
1382;SDS011;685;47.196;11.880;2023-07-31T06:41:46;3.07;;;2.20;;
1382;SDS011;685;47.196;11.880;2023-07-31T06:44:14;4.97;;;2.30;;
1382;SDS011;685;47.196;11.880;2023-07-31T06:46:41;3.20;;;2.30;;
1382;SDS011;685;47.196;11.880;2023-07-31T06:49:09;3.20;;;2.03;;
1382;SDS011;685;47.196;11.880;2023-07-31T06:51:36;3.00;;;2.10;;
1382;SDS011;685;47.196;11.880;2023-07-31T06:54:05;3.30;;;2.30;;
1382;SDS011;685;47.196;11.880;2023-07-31T06:56:32;3.63;;;2.37;;
1382;SDS011;685;47.196;11.880;2023-07-31T06:58:59;6.30;;;2.23;;
1382;SDS011;685;47.196;11.880;2023-07-31T07:01:26;4.77;;;2.17;;
1382;SDS011;685;47.196;11.880;2023-07-31T07:03:54;3.80;;;2.30;;
1382;SDS011;685;47.196;11.880;2023-07-31T07:06:21;4.77;;;2.77;;
1382;SDS011;685;47.196;11.880;2023-07-31T07:08:49;3.80;;;2.20;;
1382;SDS011;685;47.196;11.880;2023-07-31T07:11:17;4.97;;;2.50;;
1382;SDS011;685;47.196;11.880;2023-07-31T07:13:44;4.30;;;2.70;;
1382;SDS011;685;47.196;11.880;2023-07-31T07:16:12;3.27;;;2.30;;
1382;SDS011;685;47.196;11.880;2023-07-31T07:18:39;3.50;;;2.80;;
1382;SDS011;685;47.196;11.880;2023-07-31T07:21:06;3.23;;;2.60;;
1382;SDS011;685;47.196;11.880;2023-07-31T07:23:33;4.70;;;3.03;;
1382;SDS011;685;47.196;11.880;2023-07-31T07:26:01;2.70;;;2.17;;
1382;SDS011;685;47.196;11.880;2023-07-31T07:28:29;3.70;;;2.77;;
1382;SDS011;685;47.196;11.880;2023-07-31T07:30:57;3.67;;;2.57;;
1382;SDS011;685;47.196;11.880;2023-07-31T07:33:24;5.07;;;2.80;;
1382;SDS011;685;47.196;11.880;2023-07-31T07:35:51;4.07;;;3.20;;
1382;SDS011;685;47.196;11.880;2023-07-31T07:38:18;3.40;;;2.60;;
1382;SDS011;685;47.196;11.880;2023-07-31T07:40:45;5.33;;;2.80;;
1382;SDS011;685;47.196;11.880;2023-07-31T07:43:15;4.87;;;2.97;;
1382;SDS011;685;47.196;11.880;2023-07-31T07:45:44;4.10;;;2.63;;
1382;SDS011;685;47.196;11.880;2023-07-31T07:48:11;4.30;;;2.60;;
1382;SDS011;685;47.196;11.880;2023-07-31T07:50:38;4.13;;;2.80;;
1382;SDS011;685;47.196;11.880;2023-07-31T07:53:05;3.90;;;2.93;;
1382;SDS011;685;47.196;11.880;2023-07-31T07:55:33;2.90;;;2.43;;
1382;SDS011;685;47.196;11.880;2023-07-31T07:58:00;3.47;;;2.70;;
1382;SDS011;685;47.196;11.880;2023-07-31T08:00:27;3.43;;;2.77;;
1382;SDS011;685;47.196;11.880;2023-07-31T08:02:56;3.63;;;2.63;;
1382;SDS011;685;47.196;11.880;2023-07-31T08:05:23;4.70;;;3.10;;
1382;SDS011;685;47.196;11.880;2023-07-31T08:07:50;4.27;;;3.23;;
1382;SDS011;685;47.196;11.880;2023-07-31T08:10:18;3.60;;;3.30;;
1382;SDS011;685;47.196;11.880;2023-07-31T08:12:45;3.67;;;3.20;;
1382;SDS011;685;47.196;11.880;2023-07-31T08:15:12;5.40;;;2.93;;
1382;SDS011;685;47.196;11.880;2023-07-31T08:17:39;5.40;;;3.50;;
1382;SDS011;685;47.196;11.880;2023-07-31T08:20:09;4.07;;;2.97;;
1382;SDS011;685;47.196;11.880;2023-07-31T08:22:36;3.43;;;2.90;;
1382;SDS011;685;47.196;11.880;2023-07-31T08:25:04;4.57;;;3.30;;
1382;SDS011;685;47.196;11.880;2023-07-31T08:27:32;4.53;;;3.00;;
1382;SDS011;685;47.196;11.880;2023-07-31T08:29:59;4.23;;;3.13;;
1382;SDS011;685;47.196;11.880;2023-07-31T08:32:26;5.53;;;3.13;;
1382;SDS011;685;47.196;11.880;2023-07-31T08:34:53;4.70;;;3.17;;
1382;SDS011;685;47.196;11.880;2023-07-31T08:37:22;5.27;;;3.17;;
1382;SDS011;685;47.196;11.880;2023-07-31T08:39:49;3.50;;;2.87;;
1382;SDS011;685;47.196;11.880;2023-07-31T08:42:16;4.13;;;2.80;;
1382;SDS011;685;47.196;11.880;2023-07-31T08:44:44;3.70;;;3.10;;
1382;SDS011;685;47.196;11.880;2023-07-31T08:47:11;4.20;;;2.60;;
1382;SDS011;685;47.196;11.880;2023-07-31T08:49:39;4.93;;;2.73;;
1382;SDS011;685;47.196;11.880;2023-07-31T08:52:06;3.87;;;3.13;;
1382;SDS011;685;47.196;11.880;2023-07-31T08:54:35;3.70;;;3.13;;
1382;SDS011;685;47.196;11.880;2023-07-31T08:57:02;3.00;;;2.10;;
1382;SDS011;685;47.196;11.880;2023-07-31T08:59:30;4.50;;;3.20;;
1382;SDS011;685;47.196;11.880;2023-07-31T09:01:59;3.97;;;2.60;;
1382;SDS011;685;47.196;11.880;2023-07-31T09:04:29;4.73;;;2.70;;
1382;SDS011;685;47.196;11.880;2023-07-31T09:07:00;3.70;;;2.90;;
1382;SDS011;685;47.196;11.880;2023-07-31T09:09:29;4.63;;;2.83;;
1382;SDS011;685;47.196;11.880;2023-07-31T09:11:58;4.10;;;3.63;;
1382;SDS011;685;47.196;11.880;2023-07-31T09:14:25;4.30;;;3.17;;
1382;SDS011;685;47.196;11.880;2023-07-31T09:16:53;3.00;;;2.53;;
1382;SDS011;685;47.196;11.880;2023-07-31T09:19:24;4.87;;;2.73;;
1382;SDS011;685;47.196;11.880;2023-07-31T09:21:52;3.80;;;2.90;;
1382;SDS011;685;47.196;11.880;2023-07-31T09:24:24;4.37;;;3.20;;
1382;SDS011;685;47.196;11.880;2023-07-31T09:26:53;3.97;;;3.13;;
1382;SDS011;685;47.196;11.880;2023-07-31T09:29:22;3.20;;;2.40;;
1382;SDS011;685;47.196;11.880;2023-07-31T09:31:50;4.27;;;3.87;;
1382;SDS011;685;47.196;11.880;2023-07-31T09:34:17;3.70;;;2.67;;
1382;SDS011;685;47.196;11.880;2023-07-31T09:36:45;3.57;;;2.70;;
1382;SDS011;685;47.196;11.880;2023-07-31T09:39:12;3.77;;;3.03;;
1382;SDS011;685;47.196;11.880;2023-07-31T09:41:42;3.63;;;3.00;;
1382;SDS011;685;47.196;11.880;2023-07-31T09:44:09;3.20;;;2.50;;
1382;SDS011;685;47.196;11.880;2023-07-31T09:46:38;4.97;;;3.03;;
1382;SDS011;685;47.196;11.880;2023-07-31T09:49:06;3.40;;;2.40;;
1382;SDS011;685;47.196;11.880;2023-07-31T09:51:35;3.53;;;2.53;;
1382;SDS011;685;47.196;11.880;2023-07-31T09:54:12;4.10;;;2.43;;
1382;SDS011;685;47.196;11.880;2023-07-31T09:56:41;3.87;;;3.00;;
1382;SDS011;685;47.196;11.880;2023-07-31T09:59:11;4.37;;;3.00;;
1382;SDS011;685;47.196;11.880;2023-07-31T10:01:40;3.17;;;2.40;;
1382;SDS011;685;47.196;11.880;2023-07-31T10:04:08;4.30;;;2.43;;
1382;SDS011;685;47.196;11.880;2023-07-31T10:06:36;3.57;;;2.80;;
1382;SDS011;685;47.196;11.880;2023-07-31T10:09:04;5.13;;;2.90;;
1382;SDS011;685;47.196;11.880;2023-07-31T10:11:33;3.47;;;2.90;;
1382;SDS011;685;47.196;11.880;2023-07-31T10:14:01;3.20;;;2.63;;
1382;SDS011;685;47.196;11.880;2023-07-31T10:16:28;2.97;;;2.40;;
1382;SDS011;685;47.196;11.880;2023-07-31T10:18:58;3.53;;;2.30;;
1382;SDS011;685;47.196;11.880;2023-07-31T10:21:26;4.80;;;2.90;;
1382;SDS011;685;47.196;11.880;2023-07-31T10:23:53;3.47;;;3.00;;
1382;SDS011;685;47.196;11.880;2023-07-31T10:26:21;5.57;;;3.20;;
1382;SDS011;685;47.196;11.880;2023-07-31T10:28:50;3.63;;;2.67;;
1382;SDS011;685;47.196;11.880;2023-07-31T10:31:19;3.87;;;2.93;;
1382;SDS011;685;47.196;11.880;2023-07-31T10:33:46;3.20;;;2.60;;
1382;SDS011;685;47.196;11.880;2023-07-31T10:36:15;3.97;;;2.50;;
1382;SDS011;685;47.196;11.880;2023-07-31T10:38:43;4.10;;;2.70;;
1382;SDS011;685;47.196;11.880;2023-07-31T10:41:11;3.53;;;2.43;;
1382;SDS011;685;47.196;11.880;2023-07-31T10:43:38;2.67;;;2.13;;
1382;SDS011;685;47.196;11.880;2023-07-31T10:46:08;3.57;;;2.63;;
1382;SDS011;685;47.196;11.880;2023-07-31T10:48:36;4.33;;;2.37;;
1382;SDS011;685;47.196;11.880;2023-07-31T10:51:06;3.70;;;2.63;;
1382;SDS011;685;47.196;11.880;2023-07-31T10:53:36;3.47;;;2.70;;
1382;SDS011;685;47.196;11.880;2023-07-31T10:56:04;3.37;;;2.20;;
1382;SDS011;685;47.196;11.880;2023-07-31T10:58:32;4.10;;;2.90;;
1382;SDS011;685;47.196;11.880;2023-07-31T11:01:01;3.50;;;2.63;;
1382;SDS011;685;47.196;11.880;2023-07-31T11:03:40;4.00;;;2.50;;
1382;SDS011;685;47.196;11.880;2023-07-31T11:06:08;2.80;;;2.27;;
1382;SDS011;685;47.196;11.880;2023-07-31T11:08:41;3.13;;;2.20;;
1382;SDS011;685;47.196;11.880;2023-07-31T11:11:09;6.70;;;3.00;;
1382;SDS011;685;47.196;11.880;2023-07-31T11:13:41;3.70;;;2.67;;
1382;SDS011;685;47.196;11.880;2023-07-31T11:16:08;3.97;;;2.50;;
1382;SDS011;685;47.196;11.880;2023-07-31T11:18:37;4.50;;;2.70;;
1382;SDS011;685;47.196;11.880;2023-07-31T11:21:05;3.80;;;3.40;;
1382;SDS011;685;47.196;11.880;2023-07-31T11:23:32;3.50;;;3.10;;
1382;SDS011;685;47.196;11.880;2023-07-31T11:26:01;4.13;;;2.60;;
1382;SDS011;685;47.196;11.880;2023-07-31T11:28:31;3.70;;;3.00;;
1382;SDS011;685;47.196;11.880;2023-07-31T11:31:00;3.63;;;2.70;;
1382;SDS011;685;47.196;11.880;2023-07-31T11:33:27;7.20;;;3.40;;
1382;SDS011;685;47.196;11.880;2023-07-31T11:35:54;5.30;;;2.67;;
1382;SDS011;685;47.196;11.880;2023-07-31T11:38:22;3.50;;;2.97;;
1382;SDS011;685;47.196;11.880;2023-07-31T11:40:50;4.30;;;3.00;;
1382;SDS011;685;47.196;11.880;2023-07-31T11:43:19;4.27;;;3.20;;
1382;SDS011;685;47.196;11.880;2023-07-31T11:45:47;3.47;;;3.17;;
1382;SDS011;685;47.196;11.880;2023-07-31T11:48:21;5.50;;;3.27;;
1382;SDS011;685;47.196;11.880;2023-07-31T11:50:49;4.33;;;3.30;;
1382;SDS011;685;47.196;11.880;2023-07-31T11:53:18;3.90;;;3.20;;
1382;SDS011;685;47.196;11.880;2023-07-31T11:55:46;5.00;;;3.37;;
1382;SDS011;685;47.196;11.880;2023-07-31T11:58:13;3.83;;;2.97;;
1382;SDS011;685;47.196;11.880;2023-07-31T12:00:44;4.20;;;3.30;;
1382;SDS011;685;47.196;11.880;2023-07-31T12:03:11;3.60;;;3.27;;
1382;SDS011;685;47.196;11.880;2023-07-31T12:05:38;4.37;;;2.87;;
1382;SDS011;685;47.196;11.880;2023-07-31T12:08:09;4.13;;;2.47;;
1382;SDS011;685;47.196;11.880;2023-07-31T12:10:37;4.90;;;3.10;;
1382;SDS011;685;47.196;11.880;2023-07-31T12:13:06;4.10;;;2.87;;
1382;SDS011;685;47.196;11.880;2023-07-31T12:15:36;3.10;;;2.37;;
1382;SDS011;685;47.196;11.880;2023-07-31T12:18:05;3.80;;;2.83;;
1382;SDS011;685;47.196;11.880;2023-07-31T12:20:33;5.37;;;3.10;;
1382;SDS011;685;47.196;11.880;2023-07-31T12:23:00;3.70;;;2.90;;
1382;SDS011;685;47.196;11.880;2023-07-31T12:25:28;4.57;;;3.00;;
1382;SDS011;685;47.196;11.880;2023-07-31T12:27:56;4.60;;;3.27;;
1382;SDS011;685;47.196;11.880;2023-07-31T12:30:27;3.70;;;2.67;;
1382;SDS011;685;47.196;11.880;2023-07-31T12:32:54;4.27;;;2.80;;
1382;SDS011;685;47.196;11.880;2023-07-31T12:35:23;4.40;;;2.60;;
1382;SDS011;685;47.196;11.880;2023-07-31T12:37:50;3.87;;;2.87;;
1382;SDS011;685;47.196;11.880;2023-07-31T12:40:17;3.67;;;2.53;;
1382;SDS011;685;47.196;11.880;2023-07-31T12:42:44;3.77;;;2.80;;
1382;SDS011;685;47.196;11.880;2023-07-31T12:45:12;3.87;;;2.93;;
1382;SDS011;685;47.196;11.880;2023-07-31T12:47:39;3.83;;;2.60;;
1382;SDS011;685;47.196;11.880;2023-07-31T12:50:07;3.60;;;2.50;;
1382;SDS011;685;47.196;11.880;2023-07-31T12:52:35;5.40;;;2.93;;
1382;SDS011;685;47.196;11.880;2023-07-31T12:55:03;3.60;;;2.93;;
1382;SDS011;685;47.196;11.880;2023-07-31T12:57:30;3.63;;;2.57;;
1382;SDS011;685;47.196;11.880;2023-07-31T12:59:58;3.97;;;3.00;;
1382;SDS011;685;47.196;11.880;2023-07-31T13:02:25;3.70;;;2.77;;
1382;SDS011;685;47.196;11.880;2023-07-31T13:04:52;2.90;;;2.27;;
1382;SDS011;685;47.196;11.880;2023-07-31T13:07:21;4.33;;;2.80;;
1382;SDS011;685;47.196;11.880;2023-07-31T13:09:50;5.93;;;2.57;;
1382;SDS011;685;47.196;11.880;2023-07-31T13:12:17;4.40;;;2.80;;
1382;SDS011;685;47.196;11.880;2023-07-31T13:14:44;4.20;;;3.00;;
1382;SDS011;685;47.196;11.880;2023-07-31T13:17:12;4.03;;;2.80;;
1382;SDS011;685;47.196;11.880;2023-07-31T13:19:39;3.93;;;2.70;;
1382;SDS011;685;47.196;11.880;2023-07-31T13:22:07;4.30;;;2.63;;
1382;SDS011;685;47.196;11.880;2023-07-31T13:24:35;4.20;;;2.90;;
1382;SDS011;685;47.196;11.880;2023-07-31T13:27:03;3.00;;;2.57;;
1382;SDS011;685;47.196;11.880;2023-07-31T13:29:31;4.30;;;2.90;;
1382;SDS011;685;47.196;11.880;2023-07-31T13:31:58;3.60;;;2.60;;
1382;SDS011;685;47.196;11.880;2023-07-31T13:34:25;3.00;;;2.33;;
1382;SDS011;685;47.196;11.880;2023-07-31T13:36:53;3.60;;;2.50;;
1382;SDS011;685;47.196;11.880;2023-07-31T13:39:21;4.00;;;2.80;;
1382;SDS011;685;47.196;11.880;2023-07-31T13:41:48;3.77;;;2.90;;
1382;SDS011;685;47.196;11.880;2023-07-31T13:44:17;4.23;;;2.30;;
1382;SDS011;685;47.196;11.880;2023-07-31T13:46:44;4.30;;;2.93;;
1382;SDS011;685;47.196;11.880;2023-07-31T13:49:11;3.50;;;2.80;;
1382;SDS011;685;47.196;11.880;2023-07-31T13:51:39;5.13;;;3.00;;
1382;SDS011;685;47.196;11.880;2023-07-31T13:54:06;3.53;;;2.80;;
1382;SDS011;685;47.196;11.880;2023-07-31T13:56:33;3.90;;;2.57;;
1382;SDS011;685;47.196;11.880;2023-07-31T13:59:00;4.13;;;3.00;;
1382;SDS011;685;47.196;11.880;2023-07-31T14:01:29;3.40;;;2.90;;
1382;SDS011;685;47.196;11.880;2023-07-31T14:03:56;3.43;;;2.60;;
1382;SDS011;685;47.196;11.880;2023-07-31T14:06:24;4.00;;;2.90;;
1382;SDS011;685;47.196;11.880;2023-07-31T14:08:51;3.53;;;2.70;;
1382;SDS011;685;47.196;11.880;2023-07-31T14:11:18;3.60;;;2.43;;
1382;SDS011;685;47.196;11.880;2023-07-31T14:13:45;4.10;;;3.20;;
1382;SDS011;685;47.196;11.880;2023-07-31T14:16:13;4.00;;;2.87;;
1382;SDS011;685;47.196;11.880;2023-07-31T14:18:41;3.70;;;2.87;;
1382;SDS011;685;47.196;11.880;2023-07-31T14:21:10;4.10;;;2.93;;
1382;SDS011;685;47.196;11.880;2023-07-31T14:23:37;4.07;;;2.57;;
1382;SDS011;685;47.196;11.880;2023-07-31T14:26:05;4.20;;;3.03;;
1382;SDS011;685;47.196;11.880;2023-07-31T14:28:32;5.07;;;3.10;;
1382;SDS011;685;47.196;11.880;2023-07-31T14:30:59;4.80;;;2.90;;
1382;SDS011;685;47.196;11.880;2023-07-31T14:33:27;4.80;;;3.60;;
1382;SDS011;685;47.196;11.880;2023-07-31T14:35:55;5.03;;;3.57;;
1382;SDS011;685;47.196;11.880;2023-07-31T14:38:22;4.00;;;2.70;;
1382;SDS011;685;47.196;11.880;2023-07-31T14:40:50;3.60;;;3.07;;
1382;SDS011;685;47.196;11.880;2023-07-31T14:43:17;4.00;;;3.57;;
1382;SDS011;685;47.196;11.880;2023-07-31T14:45:44;4.30;;;3.47;;
1382;SDS011;685;47.196;11.880;2023-07-31T14:48:12;4.60;;;3.50;;
1382;SDS011;685;47.196;11.880;2023-07-31T14:50:39;4.93;;;3.70;;
1382;SDS011;685;47.196;11.880;2023-07-31T14:53:08;5.20;;;3.80;;
1382;SDS011;685;47.196;11.880;2023-07-31T14:55:35;5.80;;;3.43;;
1382;SDS011;685;47.196;11.880;2023-07-31T14:58:02;5.83;;;3.23;;
1382;SDS011;685;47.196;11.880;2023-07-31T15:00:29;5.33;;;3.53;;
1382;SDS011;685;47.196;11.880;2023-07-31T15:02:57;3.80;;;3.03;;
1382;SDS011;685;47.196;11.880;2023-07-31T15:05:24;4.73;;;3.37;;
1382;SDS011;685;47.196;11.880;2023-07-31T15:07:51;4.60;;;3.87;;
1382;SDS011;685;47.196;11.880;2023-07-31T15:10:20;6.40;;;3.80;;
1382;SDS011;685;47.196;11.880;2023-07-31T15:12:47;3.77;;;3.10;;
1382;SDS011;685;47.196;11.880;2023-07-31T15:15:15;3.80;;;3.30;;
1382;SDS011;685;47.196;11.880;2023-07-31T15:17:42;4.30;;;3.40;;